Time;durP1;ratioP1;P1;durP2;ratioP2;P2;SDS_P1;SDS_P2;PMS_P1;PMS_P2;Temp;Humidity;BMP_temperature;BMP_pressure;BME280_temperature;BME280_humidity;BME280_pressure;Samples;Min_cycle;Max_cycle;Signal;HPM_P1;HPM_P2
2023/04/09 00:00:37;;;;;;;35.90;20.85;;;;;;;-146.27;100.00;83943.31;5091594;28;20028;-68
2023/04/09 00:03:02;;;;;;;32.83;19.42;;;;;;;-146.27;100.00;84011.66;5088691;28;20028;-68
2023/04/09 00:05:28;;;;;;;34.70;20.50;;;;;;;-146.27;100.00;83987.53;5090919;28;20020;-68
2023/04/09 00:07:53;;;;;;;34.55;19.63;;;;;;;-146.27;100.00;83991.56;5093357;28;20031;-68
2023/04/09 00:10:19;;;;;;;35.30;20.40;;;;;;;-146.27;100.00;83979.50;5093076;28;20089;-68
2023/04/09 00:12:45;;;;;;;38.30;21.35;;;;;;;-146.27;100.00;83989.53;5092469;28;20094;-68
2023/04/09 00:15:10;;;;;;;38.47;21.65;;;;;;;-146.27;100.00;83991.56;5092103;28;20462;-68
2023/04/09 00:17:36;;;;;;;35.75;21.08;;;;;;;-146.27;100.00;83971.47;5087787;28;20024;-68
2023/04/09 00:20:02;;;;;;;37.42;20.85;;;;;;;-146.27;100.00;83963.41;5089364;28;20051;-68
2023/04/09 00:22:28;;;;;;;40.13;20.60;;;;;;;-146.27;100.00;84011.66;5092469;28;20024;-69
2023/04/09 00:24:53;;;;;;;33.13;19.20;;;;;;;-146.27;100.00;83983.50;5087097;28;20035;-68
2023/04/09 00:27:19;;;;;;;37.58;21.52;;;;;;;-146.27;100.00;83985.53;5081441;28;20507;-68
2023/04/09 00:29:44;;;;;;;35.92;21.00;;;;;;;-146.27;100.00;84003.59;5092428;28;20019;-67
2023/04/09 00:32:10;;;;;;;39.58;21.52;;;;;;;-146.27;100.00;84001.59;5088348;28;20024;-68
2023/04/09 00:34:35;;;;;;;38.20;20.42;;;;;;;-146.27;100.00;83981.50;5089294;28;20097;-68
2023/04/09 00:37:01;;;;;;;36.47;19.90;;;;;;;-146.27;100.00;83991.56;5090764;28;20474;-68
2023/04/09 00:39:26;;;;;;;37.63;20.55;;;;;;;-146.27;100.00;83987.53;5092912;28;20020;-67
2023/04/09 00:42:01;;;;;;;38.45;21.33;;;;;;;-146.27;100.00;83991.56;5091980;28;20048;-68
2023/04/09 00:44:26;;;;;;;39.90;21.15;;;;;;;-146.27;100.00;83979.50;5091930;28;20067;-69
2023/04/09 00:46:53;;;;;;;33.90;21.20;;;;;;;-146.27;100.00;84003.59;5090144;28;20073;-68
2023/04/09 00:49:19;;;;;;;37.17;21.02;;;;;;;-146.27;100.00;83979.50;5091180;28;20486;-69
2023/04/09 00:51:45;;;;;;;37.45;21.27;;;;;;;-146.27;100.00;83983.50;5092196;28;20036;-69
2023/04/09 00:54:11;;;;;;;40.05;22.50;;;;;;;-146.27;100.00;83987.53;5091873;28;20027;-68
2023/04/09 00:56:37;;;;;;;35.63;21.00;;;;;;;-146.27;100.00;83989.53;5089069;28;20043;-68
2023/04/09 00:59:03;;;;;;;39.38;21.25;;;;;;;-146.27;100.00;84009.63;5091898;28;20085;-67
2023/04/09 01:01:29;;;;;;;37.30;21.95;;;;;;;-146.27;100.00;84003.59;5087831;28;20027;-68
2023/04/09 01:03:54;;;;;;;36.65;20.73;;;;;;;-146.27;100.00;84013.66;5088541;28;20036;-68
2023/04/09 01:06:40;;;;;;;36.35;20.80;;;;;;;-146.27;100.00;83999.59;5091772;28;20048;-68
2023/04/09 01:09:16;;;;;;;36.10;22.00;;;;;;;-146.27;100.00;84035.75;5080742;28;20035;-68
2023/04/09 01:12:03;;;;;;;34.42;20.13;;;;;;;-146.27;100.00;83989.53;5084981;28;20024;-68
2023/04/09 01:14:52;;;;;;;37.63;20.92;;;;;;;-146.27;100.00;84015.66;5091296;28;20468;-67
2023/04/09 01:17:23;;;;;;;32.70;19.80;;;;;;;-146.27;100.00;84039.78;5086557;28;20036;-68
2023/04/09 01:20:05;;;;;;;31.30;18.90;;;;;;;-146.27;100.00;84023.69;5084321;28;20028;-68
2023/04/09 01:22:30;;;;;;;33.47;20.02;;;;;;;-146.27;100.00;84041.78;5086804;28;20032;-68
2023/04/09 01:25:03;;;;;;;33.38;19.35;;;;;;;-146.27;100.00;84035.75;5089294;28;20028;-69
2023/04/09 01:27:42;;;;;;;34.08;19.90;;;;;;;-146.27;100.00;84073.94;5086271;28;20767;-68
2023/04/09 01:30:09;;;;;;;31.75;18.45;;;;;;;-146.27;100.00;84027.72;5088888;28;20496;-68
2023/04/09 01:32:37;;;;;;;31.02;18.00;;;;;;;-146.27;100.00;84114.13;5086100;28;20072;-68
2023/04/09 01:35:03;;;;;;;32.25;18.48;;;;;;;-146.27;100.00;84114.13;5086948;28;20047;-68
2023/04/09 01:37:29;;;;;;;33.70;19.45;;;;;;;-146.27;100.00;84067.91;5090169;28;20036;-70
2023/04/09 01:39:55;;;;;;;31.63;19.67;;;;;;;-146.27;100.00;84128.22;5081947;28;20129;-68
2023/04/09 01:42:21;;;;;;;33.15;19.02;;;;;;;-146.27;100.00;84102.09;5087803;28;20031;-68
2023/04/09 01:44:47;;;;;;;29.88;17.58;;;;;;;-146.27;100.00;84079.97;5079785;28;20084;-67
2023/04/09 01:47:13;;;;;;;33.58;19.95;;;;;;;-146.27;100.00;84071.94;5091679;28;20025;-67
2023/04/09 01:49:40;;;;;;;35.08;20.02;;;;;;;-146.27;100.00;84114.13;5082214;28;20085;-68
2023/04/09 01:52:06;;;;;;;39.17;20.13;;;;;;;-146.27;100.00;84086.00;5086077;28;20379;-68
2023/04/09 01:54:31;;;;;;;31.70;18.60;;;;;;;-146.27;100.00;84051.84;5095118;28;20027;-67
2023/04/09 01:56:57;;;;;;;34.97;20.60;;;;;;;-146.27;100.00;84128.22;5092563;28;20502;-68
2023/04/09 01:59:22;;;;;;;27.15;17.40;;;;;;;-146.27;100.00;84100.06;5088082;28;20031;-69
2023/04/09 02:02:00;;;;;;;34.17;19.60;;;;;;;-146.27;100.00;84092.03;5094589;28;20028;-69
2023/04/09 02:04:39;;;;;;;33.83;18.65;;;;;;;-146.27;100.00;84071.94;5092033;28;20036;-69
2023/04/09 02:07:27;;;;;;;33.00;19.60;;;;;;;-146.27;100.00;84086.00;5094262;28;20048;-68
2023/04/09 02:09:53;;;;;;;39.45;21.15;;;;;;;-146.27;100.00;84075.94;5090190;28;20031;-69
2023/04/09 02:12:20;;;;;;;40.47;20.85;;;;;;;-146.27;100.00;84055.84;5091869;28;20356;-67
2023/04/09 02:14:50;;;;;;;38.03;21.52;;;;;;;-146.27;100.00;84073.94;5094084;28;20039;-67
2023/04/09 02:17:15;;;;;;;36.55;21.00;;;;;;;-146.27;100.00;84051.84;5093951;28;20031;-67
2023/04/09 02:19:44;;;;;;;40.35;23.63;;;;;;;-146.27;100.00;84069.94;5090903;28;20479;-68
2023/04/09 02:22:10;;;;;;;40.63;21.70;;;;;;;-146.27;100.00;84037.78;5094095;28;20359;-67
2023/04/09 02:24:36;;;;;;;40.83;22.25;;;;;;;-146.27;100.00;84023.69;5094995;28;20039;-68
2023/04/09 02:27:02;;;;;;;42.38;22.67;;;;;;;-146.27;100.00;84019.69;5089733;28;20028;-68
2023/04/09 02:29:29;;;;;;;38.95;21.15;;;;;;;-146.27;100.00;84045.81;5092206;28;20058;-68
2023/04/09 02:31:54;;;;;;;43.65;23.88;;;;;;;-146.27;100.00;84059.88;5091005;28;20097;-68
2023/04/09 02:34:19;;;;;;;44.47;23.92;;;;;;;-146.27;100.00;84057.88;5089678;28;20111;-69
2023/04/09 02:36:45;;;;;;;49.55;24.95;;;;;;;-146.27;100.00;84045.81;5092986;28;20417;-67
2023/04/09 02:39:10;;;;;;;43.28;24.23;;;;;;;-146.27;100.00;84025.72;5092360;28;20020;-67
2023/04/09 02:41:35;;;;;;;43.10;24.00;;;;;;;-146.27;100.00;84007.63;5092740;28;20161;-69
2023/04/09 02:44:01;;;;;;;48.38;25.75;;;;;;;-146.27;100.00;84031.75;5093080;28;20028;-67
2023/04/09 02:46:26;;;;;;;46.45;24.75;;;;;;;-146.27;100.00;84035.75;5092762;28;20024;-68
2023/04/09 02:48:51;;;;;;;44.85;23.67;;;;;;;-146.27;100.00;84023.69;5092989;28;20395;-67
2023/04/09 02:51:17;;;;;;;43.03;24.52;;;;;;;-146.27;100.00;84021.69;5093202;28;20016;-67
2023/04/09 02:53:44;;;;;;;45.75;24.10;;;;;;;-146.27;100.00;84029.72;5089813;28;20039;-68
2023/04/09 02:56:09;;;;;;;46.80;23.35;;;;;;;-146.27;100.00;84037.78;5093732;28;20024;-68
2023/04/09 02:58:35;;;;;;;41.03;23.38;;;;;;;-146.27;100.00;84003.59;5092223;28;20043;-67
2023/04/09 03:01:00;;;;;;;45.25;24.30;;;;;;;-146.27;100.00;84031.75;5091820;28;20024;-68
2023/04/09 03:03:26;;;;;;;46.75;23.65;;;;;;;-146.27;100.00;83993.56;5092745;28;20049;-68
2023/04/09 03:05:51;;;;;;;44.67;23.60;;;;;;;-146.27;100.00;84003.59;5088583;28;20036;-68
2023/04/09 03:08:16;;;;;;;43.85;23.75;;;;;;;-146.27;100.00;83985.53;5092871;28;20020;-68
2023/04/09 03:10:42;;;;;;;43.78;23.58;;;;;;;-146.27;100.00;83991.56;5090433;28;20032;-67
2023/04/09 03:13:07;;;;;;;53.78;25.08;;;;;;;-146.27;100.00;83971.47;5092475;28;20475;-69
2023/04/09 03:15:32;;;;;;;44.22;24.15;;;;;;;-146.27;100.00;83959.41;5092044;28;20491;-68
2023/04/09 03:17:58;;;;;;;51.28;24.70;;;;;;;-146.27;100.00;83971.47;5092718;28;20016;-69
2023/04/09 03:20:23;;;;;;;42.90;24.40;;;;;;;-146.27;100.00;83961.41;5091408;28;20024;-68
2023/04/09 03:22:49;;;;;;;41.20;23.05;;;;;;;-146.27;100.00;83929.25;5093234;28;20028;-68
2023/04/09 03:25:14;;;;;;;47.55;24.08;;;;;;;-146.27;100.00;83943.31;5090295;28;20035;-68
2023/04/09 03:27:39;;;;;;;43.20;22.92;;;;;;;-146.27;100.00;83951.34;5088829;28;20507;-68
2023/04/09 03:30:05;;;;;;;49.03;25.38;;;;;;;-146.27;100.00;83927.25;5088856;28;20024;-68
2023/04/09 03:32:31;;;;;;;44.33;22.98;;;;;;;-146.27;100.00;83943.31;5089144;28;20028;-68
2023/04/09 03:34:56;;;;;;;46.70;23.55;;;;;;;-146.27;100.00;83907.16;5091664;28;20097;-68
2023/04/09 03:37:21;;;;;;;49.10;24.00;;;;;;;-146.27;100.00;83899.09;5088269;28;20024;-67
2023/04/09 03:39:47;;;;;;;45.60;24.58;;;;;;;-146.27;100.00;83911.16;5085594;28;20031;-68
2023/04/09 03:42:12;;;;;;;41.45;23.42;;;;;;;-146.27;100.00;83844.84;5092420;28;20028;-68
2023/04/09 03:44:37;;;;;;;41.42;22.77;;;;;;;-146.27;100.00;83913.19;5093184;28;20141;-68
2023/04/09 03:47:03;;;;;;;49.85;24.25;;;;;;;-146.27;100.00;83889.06;5087957;28;20024;-69
2023/04/09 03:49:28;;;;;;;44.40;23.48;;;;;;;-146.27;100.00;83891.06;5092035;28;20032;-68
2023/04/09 03:51:53;;;;;;;42.75;24.50;;;;;;;-146.27;100.00;83901.13;5089891;28;20024;-68
2023/04/09 03:54:19;;;;;;;43.15;24.27;;;;;;;-146.27;100.00;83891.06;5092720;28;20062;-67
2023/04/09 03:56:44;;;;;;;48.80;24.70;;;;;;;-146.27;100.00;83911.16;5092995;28;20134;-68
2023/04/09 03:59:10;;;;;;;44.30;24.70;;;;;;;-146.27;100.00;83856.91;5088331;28;20023;-67
2023/04/09 04:01:35;;;;;;;40.47;21.38;;;;;;;-146.27;100.00;83836.81;5084651;28;20047;-68
2023/04/09 04:04:01;;;;;;;38.00;23.98;;;;;;;-146.27;100.00;83866.97;5085275;28;20032;-68
2023/04/09 04:06:26;;;;;;;45.78;24.00;;;;;;;-146.27;100.00;83842.84;5089171;28;20040;-68
2023/04/09 04:08:52;;;;;;;41.30;23.65;;;;;;;-146.27;100.00;83798.63;5091417;28;20035;-68
2023/04/09 04:11:17;;;;;;;41.00;24.05;;;;;;;-146.27;100.00;83846.84;5090166;28;20415;-68
2023/04/09 04:13:42;;;;;;;39.95;22.77;;;;;;;-146.27;100.00;83840.84;5092458;28;20020;-68
2023/04/09 04:16:09;;;;;;;43.33;25.05;;;;;;;-146.27;100.00;83806.66;5091047;28;20065;-68
2023/04/09 04:18:35;;;;;;;40.70;24.30;;;;;;;-146.27;100.00;83828.78;5087419;28;20028;-68
2023/04/09 04:21:01;;;;;;;40.10;24.35;;;;;;;-146.27;100.00;83852.88;5090536;28;20027;-68
2023/04/09 04:23:26;;;;;;;36.25;22.05;;;;;;;-146.27;100.00;83848.88;5092489;28;20027;-68
2023/04/09 04:25:56;;;;;;;43.08;22.10;;;;;;;-146.27;100.00;83850.88;5090382;28;20020;-67
2023/04/09 04:28:22;;;;;;;44.85;24.80;;;;;;;-146.27;100.00;83822.75;5090974;28;20463;-69
2023/04/09 04:30:47;;;;;;;40.60;23.02;;;;;;;-146.27;100.00;83838.81;5090523;28;20024;-69
2023/04/09 04:33:12;;;;;;;45.47;23.27;;;;;;;-146.27;100.00;83786.56;5089956;28;20039;-67
2023/04/09 04:35:38;;;;;;;41.65;23.27;;;;;;;-146.27;100.00;83832.78;5089447;28;20153;-68
2023/04/09 04:38:03;;;;;;;39.58;23.70;;;;;;;-146.27;100.00;83850.88;5090200;28;20048;-68
2023/04/09 04:40:28;;;;;;;45.10;24.10;;;;;;;-146.27;100.00;83862.94;5083654;28;20105;-69
2023/04/09 04:42:54;;;;;;;47.25;24.98;;;;;;;-146.27;100.00;83850.88;5088035;28;20036;-67
2023/04/09 04:45:19;;;;;;;44.83;22.33;;;;;;;-146.27;100.00;83838.81;5091453;28;20024;-67
2023/04/09 04:47:44;;;;;;;45.03;24.70;;;;;;;-146.27;100.00;83838.81;5087829;28;20056;-68
2023/04/09 04:50:10;;;;;;;44.90;23.52;;;;;;;-146.27;100.00;83866.97;5087908;28;20044;-68
2023/04/09 04:52:36;;;;;;;39.45;22.60;;;;;;;-146.27;100.00;83840.84;5091234;28;20055;-68
2023/04/09 04:55:01;;;;;;;42.08;22.75;;;;;;;-146.27;100.00;83846.84;5088708;28;20081;-68
2023/04/09 04:57:26;;;;;;;41.47;23.10;;;;;;;-146.27;100.00;83856.91;5086251;28;20030;-68
2023/04/09 04:59:52;;;;;;;41.83;22.70;;;;;;;-146.27;100.00;83812.69;5092093;28;20467;-67
2023/04/09 05:02:17;;;;;;;43.90;23.13;;;;;;;-146.27;100.00;83834.81;5088060;28;20020;-68
2023/04/09 05:04:42;;;;;;;39.70;22.17;;;;;;;-146.27;100.00;83844.84;5091622;28;20051;-69
2023/04/09 05:07:08;;;;;;;41.20;22.90;;;;;;;-146.27;100.00;83838.81;5088975;28;20117;-68
2023/04/09 05:09:33;;;;;;;40.20;23.17;;;;;;;-146.27;100.00;83822.75;5092211;28;20026;-69
2023/04/09 05:11:58;;;;;;;43.40;24.55;;;;;;;-146.27;100.00;83822.75;5091075;28;20540;-67
2023/04/09 05:14:24;;;;;;;42.70;22.60;;;;;;;-146.27;100.00;83812.69;5090513;28;20111;-69
2023/04/09 05:16:49;;;;;;;40.20;22.20;;;;;;;-146.27;100.00;83822.75;5089128;28;20901;-67
2023/04/09 05:19:15;;;;;;;42.05;22.90;;;;;;;-146.27;100.00;83822.75;5089085;28;20379;-68
2023/04/09 05:21:40;;;;;;;39.15;21.75;;;;;;;-146.27;100.00;83798.63;5089606;28;20024;-68
2023/04/09 05:24:05;;;;;;;44.60;23.05;;;;;;;-146.27;100.00;83790.59;5092670;28;20036;-67
2023/04/09 05:26:31;;;;;;;41.22;22.88;;;;;;;-146.27;100.00;83838.81;5093863;28;20028;-68
2023/04/09 05:28:56;;;;;;;45.30;24.33;;;;;;;-146.27;100.00;83822.75;5090837;28;20016;-68
2023/04/09 05:31:22;;;;;;;42.22;23.23;;;;;;;-146.27;100.00;83840.84;5093063;28;20031;-68
2023/04/09 05:33:47;;;;;;;43.55;22.73;;;;;;;-146.27;100.00;83822.75;5093137;28;20467;-68
2023/04/09 05:36:17;;;;;;;40.80;23.08;;;;;;;-146.27;100.00;83792.59;5089175;28;20020;-69
2023/04/09 05:38:43;;;;;;;47.90;24.15;;;;;;;-146.27;100.00;83830.78;5094415;28;20102;-72
2023/04/09 05:41:08;;;;;;;45.17;23.42;;;;;;;-146.27;100.00;83812.69;5093929;28;20060;-72
2023/04/09 05:43:34;;;;;;;39.10;21.25;;;;;;;-146.27;100.00;83818.72;5087801;28;20059;-70
2023/04/09 05:45:59;;;;;;;49.35;23.70;;;;;;;-146.27;100.00;83800.63;5091314;28;20023;-70
2023/04/09 05:48:24;;;;;;;42.90;23.27;;;;;;;-146.27;100.00;83832.78;5080243;28;20489;-71
2023/04/09 05:50:51;;;;;;;43.28;23.30;;;;;;;-146.27;100.00;83810.69;5092373;28;20024;-72
2023/04/09 05:53:17;;;;;;;40.95;23.48;;;;;;;-146.27;100.00;83810.69;5090258;28;20031;-71
2023/04/09 05:55:43;;;;;;;41.42;22.23;;;;;;;-146.27;100.00;83794.63;5084501;28;20048;-71
2023/04/09 05:58:08;;;;;;;46.42;22.70;;;;;;;-146.27;100.00;83814.72;5094622;28;20448;-71
2023/04/09 06:00:34;;;;;;;42.65;24.40;;;;;;;-146.27;100.00;83822.75;5091059;28;20441;-71
2023/04/09 06:02:59;;;;;;;44.75;23.05;;;;;;;-146.27;100.00;83786.56;5087936;28;20031;-71
2023/04/09 06:05:24;;;;;;;40.35;22.35;;;;;;;-146.27;100.00;83784.56;5085702;28;20081;-71
2023/04/09 06:07:50;;;;;;;40.25;22.40;;;;;;;-146.27;100.00;83818.72;5092612;28;20040;-71
2023/04/09 06:10:15;;;;;;;42.65;23.00;;;;;;;-146.27;100.00;83788.59;5091862;28;20097;-71
2023/04/09 06:12:40;;;;;;;37.28;21.73;;;;;;;-146.27;100.00;83826.75;5087224;28;20444;-71
2023/04/09 06:15:06;;;;;;;41.55;23.60;;;;;;;-146.27;100.00;83776.53;5093801;28;20417;-72
2023/04/09 06:17:31;;;;;;;45.33;24.38;;;;;;;-146.27;100.00;83778.53;5091560;28;20368;-71
2023/04/09 06:19:57;;;;;;;40.03;22.58;;;;;;;-146.27;100.00;83790.59;5091068;28;20102;-70
2023/04/09 06:22:22;;;;;;;38.65;22.00;;;;;;;-146.27;100.00;83782.56;5084652;28;20016;-72
2023/04/09 06:24:47;;;;;;;40.78;22.65;;;;;;;-146.27;100.00;83782.56;5084979;28;20024;-71
2023/04/09 06:27:13;;;;;;;38.30;21.30;;;;;;;-146.27;100.00;83772.50;5087220;28;20034;-72
2023/04/09 06:29:38;;;;;;;41.08;22.90;;;;;;;-146.27;100.00;83754.44;5093536;28;20372;-70
2023/04/09 06:32:04;;;;;;;41.55;22.92;;;;;;;-146.27;100.00;83766.47;5093781;28;20111;-70
2023/04/09 06:34:30;;;;;;;41.65;23.40;;;;;;;-146.27;100.00;83798.63;5089936;28;20040;-69
2023/04/09 06:36:55;;;;;;;43.20;22.17;;;;;;;-146.27;100.00;83764.47;5084324;28;20073;-68
2023/04/09 06:39:20;;;;;;;41.45;20.55;;;;;;;-146.27;100.00;83762.47;5091842;28;20035;-67
2023/04/09 06:41:46;;;;;;;37.55;22.50;;;;;;;-146.27;100.00;83744.38;5091275;28;20028;-69
2023/04/09 06:44:11;;;;;;;41.90;21.83;;;;;;;-146.27;100.00;83770.50;5093049;28;20041;-69
2023/04/09 06:46:37;;;;;;;40.40;22.02;;;;;;;-146.27;100.00;83782.56;5094270;28;20028;-68
2023/04/09 06:49:02;;;;;;;43.00;23.60;;;;;;;-146.27;100.00;83750.41;5091532;28;20055;-68
2023/04/09 06:51:27;;;;;;;42.88;22.67;;;;;;;-146.27;100.00;83758.44;5083394;28;21021;-68
2023/04/09 06:53:53;;;;;;;40.25;21.70;;;;;;;-146.27;100.00;83770.50;5089744;28;20031;-69
2023/04/09 06:56:18;;;;;;;39.67;21.27;;;;;;;-146.27;100.00;83742.38;5089072;28;20030;-68
2023/04/09 06:58:44;;;;;;;34.28;20.38;;;;;;;-146.27;100.00;83750.41;5090203;28;20664;-68
2023/04/09 07:01:11;;;;;;;38.97;21.65;;;;;;;-146.27;100.00;83756.44;5092386;28;20039;-69
2023/04/09 07:03:36;;;;;;;36.60;20.75;;;;;;;-146.27;100.00;83746.38;5091713;28;20032;-68
2023/04/09 07:06:02;;;;;;;44.20;21.83;;;;;;;-146.27;100.00;83772.50;5091659;28;20089;-68
2023/04/09 07:08:28;;;;;;;38.45;21.05;;;;;;;-146.27;100.00;83726.28;5090706;28;20099;-68
2023/04/09 07:10:53;;;;;;;40.15;21.35;;;;;;;-146.27;100.00;83770.50;5088459;28;20365;-68
2023/04/09 07:13:18;;;;;;;42.22;21.38;;;;;;;-146.27;100.00;83702.19;5087373;28;20035;-67
2023/04/09 07:15:44;;;;;;;43.33;22.55;;;;;;;-146.27;100.00;83706.19;5087419;28;20458;-69
2023/04/09 07:18:10;;;;;;;47.10;22.80;;;;;;;-146.27;100.00;83736.34;5087592;28;20142;-67
2023/04/09 07:20:35;;;;;;;42.70;22.38;;;;;;;-146.27;100.00;83690.13;5081754;28;20419;-68
2023/04/09 07:23:00;;;;;;;44.50;22.67;;;;;;;-146.27;100.00;83686.09;5088562;28;20515;-68
2023/04/09 07:25:27;;;;;;;43.47;23.48;;;;;;;-146.27;100.00;83702.19;5091182;28;20032;-69
2023/04/09 07:27:52;;;;;;;47.45;23.33;;;;;;;-146.27;100.00;83712.22;5089174;28;20065;-68
2023/04/09 07:30:17;;;;;;;47.05;24.45;;;;;;;-146.27;100.00;83738.34;5091112;28;20027;-73
2023/04/09 07:32:43;;;;;;;47.95;23.70;;;;;;;-146.27;100.00;83706.19;5089806;28;20588;-72
2023/04/09 07:35:08;;;;;;;54.45;25.73;;;;;;;-146.27;100.00;83714.22;5087656;28;20097;-71
2023/04/09 07:37:34;;;;;;;61.88;27.35;;;;;;;-146.27;100.00;83716.25;5091516;28;20490;-71
2023/04/09 07:40:00;;;;;;;59.90;27.83;;;;;;;-146.27;100.00;83706.19;5079976;28;20081;-72
2023/04/09 07:42:26;;;;;;;57.17;26.58;;;;;;;-146.27;100.00;83732.31;5089582;28;20028;-73
2023/04/09 07:44:51;;;;;;;55.90;28.38;;;;;;;-146.27;100.00;83674.03;5086918;28;20024;-72
2023/04/09 07:47:16;;;;;;;56.95;26.52;;;;;;;-146.27;100.00;83734.31;5090912;28;20036;-72
2023/04/09 07:49:42;;;;;;;64.85;28.33;;;;;;;-146.27;100.00;83641.91;5089054;28;20042;-71
2023/04/09 07:52:07;;;;;;;62.58;27.58;;;;;;;-146.27;100.00;83712.22;5088793;28;20138;-69
2023/04/09 07:54:33;;;;;;;62.05;29.15;;;;;;;-146.27;100.00;83678.06;5089681;28;20031;-68
2023/04/09 07:57:00;;;;;;;61.67;27.85;;;;;;;-146.27;100.00;83706.19;5091426;28;20024;-68
2023/04/09 07:59:26;;;;;;;71.18;31.05;;;;;;;-146.27;100.00;83670.03;5090114;28;20169;-70
2023/04/09 08:01:52;;;;;;;70.63;30.67;;;;;;;-146.27;100.00;83674.03;5089020;28;20481;-70
2023/04/09 08:04:18;;;;;;;76.88;31.63;;;;;;;-146.27;100.00;83730.31;5082383;28;20028;-71
2023/04/09 08:06:48;;;;;;;73.97;30.30;;;;;;;-146.27;100.00;83712.22;5090463;28;20047;-71
2023/04/09 08:09:14;;;;;;;77.75;32.53;;;;;;;-146.27;100.00;83696.16;5091477;28;20337;-70
2023/04/09 08:11:39;;;;;;;75.10;31.77;;;;;;;-146.27;100.00;83668.00;5089275;28;20077;-70
2023/04/09 08:14:05;;;;;;;75.75;31.88;;;;;;;-146.27;100.00;83690.13;5088538;28;20486;-74
2023/04/09 08:16:30;;;;;;;76.80;31.67;;;;;;;-146.27;100.00;83670.03;5086490;28;20027;-71
2023/04/09 08:18:56;;;;;;;72.82;31.20;;;;;;;-146.27;100.00;83694.13;5085096;28;20353;-70
2023/04/09 08:21:22;;;;;;;73.10;31.42;;;;;;;-146.27;100.00;83682.09;5091184;28;20499;-73
2023/04/09 08:23:47;;;;;;;73.68;32.53;;;;;;;-146.27;100.00;83698.16;5087921;28;20107;-72
2023/04/09 08:26:13;;;;;;;74.57;32.50;;;;;;;-146.27;100.00;83688.09;5091754;28;20480;-74
2023/04/09 08:28:38;;;;;;;73.00;32.65;;;;;;;-146.27;100.00;83718.25;5086763;28;20089;-73
2023/04/09 08:31:03;;;;;;;76.70;32.63;;;;;;;-146.27;100.00;83682.09;5090389;28;20376;-72
2023/04/09 08:33:29;;;;;;;75.13;33.72;;;;;;;-146.27;100.00;83674.03;5080784;28;20016;-75
2023/04/09 08:35:55;;;;;;;72.47;31.58;;;;;;;-146.27;100.00;83688.09;5083576;28;20452;-74
2023/04/09 08:38:20;;;;;;;74.32;32.40;;;;;;;-146.27;100.00;83645.91;5090287;28;20024;-75
2023/04/09 08:40:45;;;;;;;75.60;32.92;;;;;;;-146.27;100.00;83688.09;5084346;28;20166;-72
2023/04/09 08:43:14;;;;;;;76.80;33.42;;;;;;;-146.27;100.00;83649.94;5083782;28;20024;-73
2023/04/09 08:45:40;;;;;;;74.25;33.47;;;;;;;-146.27;100.00;83682.09;5090726;28;20069;-73
2023/04/09 08:48:09;;;;;;;87.82;36.03;;;;;;;-146.27;100.00;83653.94;5089734;28;20036;-73
2023/04/09 08:50:35;;;;;;;79.57;33.67;;;;;;;-146.27;100.00;83678.06;5083866;28;20539;-72
2023/04/09 08:53:09;;;;;;;74.68;34.08;;;;;;;-146.27;100.00;83655.97;5087107;28;20020;-72
2023/04/09 08:55:36;;;;;;;78.75;33.67;;;;;;;-146.27;100.00;83684.09;5089748;28;20157;-69
2023/04/09 08:58:04;;;;;;;77.20;33.50;;;;;;;-146.27;100.00;83694.13;5080228;28;20020;-73
2023/04/09 09:00:30;;;;;;;76.13;33.15;;;;;;;-146.27;100.00;83690.13;5086155;28;20020;-72
2023/04/09 09:03:07;;;;;;;70.50;32.58;;;;;;;-146.27;100.00;83627.81;5081914;28;20359;-69
2023/04/09 09:05:41;;;;;;;76.97;34.88;;;;;;;-146.27;100.00;83690.13;5077911;28;20533;-69
2023/04/09 09:08:09;;;;;;;74.03;33.60;;;;;;;-146.27;100.00;83674.03;5075993;28;20041;-69
2023/04/09 09:10:40;;;;;;;69.43;34.40;;;;;;;-146.27;100.00;83666.00;5070118;28;20050;-68
2023/04/09 09:13:22;;;;;;;70.68;33.97;;;;;;;-146.27;100.00;83664.00;5091189;28;20052;-69
2023/04/09 09:15:51;;;;;;;70.60;33.35;;;;;;;-146.27;100.00;83670.03;5090894;28;20024;-69
2023/04/09 09:18:18;;;;;;;68.95;32.60;;;;;;;-146.27;100.00;83686.09;5091458;28;20020;-69
2023/04/09 09:20:43;;;;;;;70.05;32.33;;;;;;;-146.27;100.00;83666.00;5091119;28;20035;-69
2023/04/09 09:23:10;;;;;;;73.22;33.45;;;;;;;-146.27;100.00;83694.13;5077162;28;20024;-69
2023/04/09 09:25:40;;;;;;;64.13;30.77;;;;;;;-146.27;100.00;83629.84;5070539;28;20029;-70
2023/04/09 09:28:11;;;;;;;68.85;32.92;;;;;;;-146.27;100.00;83631.84;5069192;28;20040;-69
2023/04/09 09:30:39;;;;;;;67.60;32.47;;;;;;;-146.27;100.00;83641.91;5070583;28;20082;-69
2023/04/09 09:33:07;;;;;;;72.72;33.67;;;;;;;-146.27;100.00;83651.94;5070475;28;20761;-69
2023/04/09 09:35:56;;;;;;;66.97;32.30;;;;;;;-146.27;100.00;83597.69;5078054;28;20028;-68
2023/04/09 09:38:21;;;;;;;69.85;34.03;;;;;;;-146.27;100.00;83637.88;5070638;28;20177;-68
2023/04/09 09:40:48;;;;;;;68.60;33.17;;;;;;;-146.27;100.00;83635.88;5071957;28;20099;-69
2023/04/09 09:43:14;;;;;;;64.43;32.47;;;;;;;-146.27;100.00;83621.81;5071572;28;20024;-68
2023/04/09 09:45:40;;;;;;;64.72;32.60;;;;;;;-146.27;100.00;83662.00;5072127;28;20020;-69
2023/04/09 09:48:06;;;;;;;64.15;33.25;;;;;;;-146.27;100.00;83621.81;5073747;28;22026;-68
2023/04/09 09:50:34;;;;;;;66.32;30.95;;;;;;;-146.27;100.00;83625.81;5072640;28;20024;-69
2023/04/09 09:53:06;;;;;;;66.05;32.80;;;;;;;-146.27;99.38;83615.78;5071705;28;20468;-69
2023/04/09 09:55:33;;;;;;;61.17;31.52;;;;;;;-146.27;99.03;83611.75;5071708;28;20037;-69
2023/04/09 09:58:02;;;;;;;60.58;32.40;;;;;;;-146.27;99.47;83625.81;5071627;28;20069;-69
2023/04/09 10:00:31;;;;;;;66.22;33.63;;;;;;;-146.27;99.54;83617.78;5071715;28;20154;-68
2023/04/09 10:03:04;;;;;;;67.47;32.10;;;;;;;-146.27;98.95;83627.81;5076584;28;20023;-68
2023/04/09 10:05:30;;;;;;;67.85;32.00;;;;;;;-146.27;98.57;83591.66;5075315;28;20107;-69
2023/04/09 10:07:57;;;;;;;65.13;31.70;;;;;;;-146.27;98.48;83493.19;5092032;28;20040;-68
2023/04/09 10:10:24;;;;;;;64.50;32.25;;;;;;;-146.27;98.14;83559.50;5093837;28;20499;-68
2023/04/09 10:12:51;;;;;;;66.18;31.90;;;;;;;-146.27;97.27;83553.47;5094136;28;20031;-68
2023/04/09 10:15:18;;;;;;;64.95;31.50;;;;;;;-146.27;96.92;83549.47;5094699;28;20028;-68
2023/04/09 10:17:44;;;;;;;60.90;30.30;;;;;;;-146.27;94.62;83489.19;5095619;28;20039;-70
2023/04/09 10:20:15;;;;;;;61.60;30.98;;;;;;;-146.27;93.87;83481.16;5090534;28;20028;-70
2023/04/09 10:22:46;;;;;;;61.15;31.40;;;;;;;-146.27;93.72;83453.00;5075363;28;20111;-69
2023/04/09 10:25:12;;;;;;;57.55;30.65;;;;;;;-146.27;93.08;83503.25;5081994;28;20111;-69
2023/04/09 10:27:38;;;;;;;63.33;30.23;;;;;;;-146.27;93.01;83491.19;5074870;28;20116;-69
2023/04/09 10:30:06;;;;;;;59.45;29.85;;;;;;;-146.27;91.93;83449.00;5074818;28;20103;-69
2023/04/09 10:32:34;;;;;;;61.47;29.95;;;;;;;-146.27;91.16;83485.16;5079997;28;20024;-68
2023/04/09 10:35:02;;;;;;;64.85;31.10;;;;;;;-146.27;90.66;83428.91;5085740;28;20062;-68
2023/04/09 10:37:27;;;;;;;58.75;29.48;;;;;;;-146.27;91.51;83418.84;5078525;28;20052;-68
2023/04/09 10:39:53;;;;;;;60.00;31.05;;;;;;;-146.27;90.58;83402.78;5074631;28;20468;-68
2023/04/09 10:42:25;;;;;;;60.47;29.95;;;;;;;-146.27;91.23;83358.56;5074863;28;20063;-69
2023/04/09 10:45:06;;;;;;;65.13;29.80;;;;;;;-146.27;88.34;83340.50;5074650;28;20028;-69
2023/04/09 10:47:33;;;;;;;57.60;28.77;;;;;;;-146.27;87.75;83316.38;5074637;28;20086;-69
2023/04/09 10:50:16;;;;;;;57.67;29.95;;;;;;;-146.27;89.05;83276.19;5082721;28;20067;-68
2023/04/09 10:52:43;;;;;;;60.50;29.30;;;;;;;-146.27;86.37;83254.09;5077145;28;20028;-70